Time;durP1;ratioP1;P1;durP2;ratioP2;P2;SDS_P1;SDS_P2;PMS_P1;PMS_P2;Temp;Humidity;BMP_temperature;BMP_pressure;BME280_temperature;BME280_humidity;BME280_pressure;Samples;Min_cycle;Max_cycle;Signal;HPM_P1;HPM_P2
2022/03/16 00:01:39;;;;;;;180.97;55.17;;;;;;;;;;5082740;28;20222;-74
2022/03/16 00:04:06;;;;;;;166.50;52.30;;;;;;;;;;5074363;28;20212;-77
2022/03/16 00:06:33;;;;;;;177.63;50.47;;;;;;;;;;5077703;28;20201;-74
2022/03/16 00:09:00;;;;;;;146.97;51.37;;;;;;;;;;5074723;28;20232;-75
2022/03/16 00:11:29;;;;;;;173.07;54.07;;;;;;;;;;5075395;28;20214;-74
2022/03/16 00:13:56;;;;;;;175.60;53.37;;;;;;;;;;5075646;28;20215;-75
2022/03/16 00:16:23;;;;;;;164.60;53.63;;;;;;;;;;5076489;28;20248;-74
2022/03/16 00:18:50;;;;;;;171.33;55.03;;;;;;;;;;5075223;28;20213;-74
2022/03/16 00:21:18;;;;;;;172.83;54.00;;;;;;;;;;5082237;28;20205;-74
2022/03/16 00:23:45;;;;;;;166.90;55.47;;;;;;;;;;5076023;28;20251;-74
2022/03/16 00:26:12;;;;;;;176.43;53.13;;;;;;;;;;5074896;28;20199;-75
2022/03/16 00:28:40;;;;;;;162.30;50.30;;;;;;;;;;5068278;28;20232;-74
2022/03/16 00:31:07;;;;;;;182.77;52.13;;;;;;;;;;5068984;28;20215;-74
2022/03/16 00:33:35;;;;;;;183.57;53.97;;;;;;;;;;5076086;28;20205;-74
2022/03/16 00:36:02;;;;;;;175.60;55.40;;;;;;;;;;5075589;28;20235;-74
2022/03/16 00:38:29;;;;;;;163.27;53.13;;;;;;;;;;5078471;28;20216;-74
2022/03/16 00:40:56;;;;;;;184.87;52.23;;;;;;;;;;5075586;28;20703;-75
2022/03/16 00:43:23;;;;;;;172.37;52.80;;;;;;;;;;5076300;28;20282;-74
2022/03/16 00:45:52;;;;;;;188.63;54.63;;;;;;;;;;5075626;28;20200;-74
2022/03/16 00:48:19;;;;;;;185.53;54.80;;;;;;;;;;5080343;28;20292;-75
2022/03/16 00:50:46;;;;;;;185.50;54.57;;;;;;;;;;5076417;28;20210;-74
2022/03/16 00:53:13;;;;;;;175.47;55.40;;;;;;;;;;5076206;28;20243;-74
2022/03/16 00:55:40;;;;;;;195.27;54.83;;;;;;;;;;5074291;28;20220;-75
2022/03/16 00:58:07;;;;;;;174.17;52.43;;;;;;;;;;5076865;28;20235;-74
2022/03/16 01:00:34;;;;;;;172.20;55.40;;;;;;;;;;5078544;28;20223;-74
2022/03/16 01:03:03;;;;;;;174.47;55.23;;;;;;;;;;5076221;28;20734;-74
2022/03/16 01:05:30;;;;;;;167.13;52.60;;;;;;;;;;5077506;28;20197;-74
2022/03/16 01:07:57;;;;;;;178.37;52.20;;;;;;;;;;5075634;28;20228;-75
2022/03/16 01:10:24;;;;;;;167.37;50.50;;;;;;;;;;5078119;28;20295;-74
2022/03/16 01:12:53;;;;;;;157.00;56.13;;;;;;;;;;5076161;28;20291;-75
2022/03/16 01:15:23;;;;;;;213.07;57.67;;;;;;;;;;5076898;28;20601;-74
2022/03/16 01:17:50;;;;;;;195.47;54.17;;;;;;;;;;5074684;28;20236;-74
2022/03/16 01:20:19;;;;;;;212.53;58.20;;;;;;;;;;5078413;28;20205;-74
2022/03/16 01:22:46;;;;;;;197.73;52.97;;;;;;;;;;5076397;28;20662;-74
2022/03/16 01:25:13;;;;;;;222.07;54.70;;;;;;;;;;5075881;28;20203;-74
2022/03/16 01:27:40;;;;;;;202.47;52.57;;;;;;;;;;5075247;28;20299;-75
2022/03/16 01:30:08;;;;;;;197.97;52.33;;;;;;;;;;5078564;28;20204;-75
2022/03/16 01:32:35;;;;;;;201.07;52.10;;;;;;;;;;5075358;28;20291;-74
2022/03/16 01:35:03;;;;;;;221.90;57.07;;;;;;;;;;5077430;28;20220;-74
2022/03/16 01:37:32;;;;;;;227.37;58.40;;;;;;;;;;5074558;28;20210;-74
2022/03/16 01:39:59;;;;;;;202.70;55.83;;;;;;;;;;5076950;28;20196;-74
2022/03/16 01:42:26;;;;;;;201.87;57.63;;;;;;;;;;5074931;28;20200;-74
2022/03/16 01:44:56;;;;;;;223.20;57.77;;;;;;;;;;5075887;28;20232;-74
2022/03/16 01:47:24;;;;;;;224.63;56.43;;;;;;;;;;5075229;28;20228;-74
2022/03/16 01:49:52;;;;;;;219.90;53.27;;;;;;;;;;5075455;28;20223;-74
2022/03/16 01:52:20;;;;;;;199.83;52.43;;;;;;;;;;5075638;28;20204;-74
2022/03/16 01:54:49;;;;;;;199.10;51.63;;;;;;;;;;5075528;28;20220;-74
2022/03/16 01:57:16;;;;;;;193.97;52.97;;;;;;;;;;5074641;28;20208;-74
2022/03/16 01:59:44;;;;;;;180.43;53.00;;;;;;;;;;5075614;28;20231;-75
2022/03/16 02:02:11;;;;;;;188.33;52.30;;;;;;;;;;5078311;28;20698;-75
2022/03/16 02:04:53;;;;;;;175.30;52.97;;;;;;;;;;5075108;28;20588;-74
2022/03/16 02:07:20;;;;;;;186.40;54.63;;;;;;;;;;5072564;28;20287;-75
2022/03/16 02:09:47;;;;;;;170.10;50.63;;;;;;;;;;5075880;28;20259;-74
2022/03/16 02:12:15;;;;;;;162.13;48.17;;;;;;;;;;5073151;28;20246;-74
2022/03/16 02:14:42;;;;;;;160.13;49.17;;;;;;;;;;5072233;28;20291;-74
2022/03/16 02:17:09;;;;;;;162.23;49.70;;;;;;;;;;5070753;28;20270;-74
2022/03/16 02:19:37;;;;;;;185.07;52.87;;;;;;;;;;5071778;28;20255;-74
2022/03/16 02:22:06;;;;;;;183.47;53.83;;;;;;;;;;5070957;28;20244;-74
2022/03/16 02:24:35;;;;;;;190.70;52.83;;;;;;;;;;5071632;28;20311;-74
2022/03/16 02:27:02;;;;;;;186.53;53.33;;;;;;;;;;5070755;28;20284;-75
2022/03/16 02:29:30;;;;;;;211.73;55.47;;;;;;;;;;5070969;28;20252;-75
2022/03/16 02:31:57;;;;;;;202.90;54.17;;;;;;;;;;5070522;28;20208;-74
2022/03/16 02:34:24;;;;;;;209.53;56.00;;;;;;;;;;5070291;28;20272;-74
2022/03/16 02:36:51;;;;;;;196.80;53.30;;;;;;;;;;5070664;28;20304;-74
2022/03/16 02:39:18;;;;;;;202.97;52.57;;;;;;;;;;5076004;28;20278;-75
2022/03/16 02:41:50;;;;;;;191.33;51.90;;;;;;;;;;5070719;28;20240;-75
2022/03/16 02:44:17;;;;;;;220.73;54.73;;;;;;;;;;5074558;28;20216;-74
2022/03/16 02:46:45;;;;;;;207.73;54.57;;;;;;;;;;5089688;28;20304;-74
2022/03/16 02:49:12;;;;;;;209.37;52.63;;;;;;;;;;5087531;28;20212;-75
2022/03/16 02:51:39;;;;;;;195.77;53.53;;;;;;;;;;5089885;28;20299;-74
2022/03/16 02:54:06;;;;;;;194.00;53.07;;;;;;;;;;5085796;28;20193;-74
2022/03/16 02:56:34;;;;;;;221.67;54.97;;;;;;;;;;5079346;28;20295;-74
2022/03/16 02:59:02;;;;;;;211.40;53.77;;;;;;;;;;5088404;28;20237;-74
2022/03/16 03:01:30;;;;;;;183.60;51.90;;;;;;;;;;5072930;28;20259;-74
2022/03/16 03:03:57;;;;;;;215.30;56.57;;;;;;;;;;5071258;28;20231;-74
2022/03/16 03:06:24;;;;;;;195.40;55.27;;;;;;;;;;5082384;28;20273;-75
2022/03/16 03:08:51;;;;;;;193.00;52.57;;;;;;;;;;5084375;28;20226;-74
2022/03/16 03:11:19;;;;;;;193.10;55.60;;;;;;;;;;5070786;28;20204;-74
2022/03/16 03:13:46;;;;;;;209.37;53.50;;;;;;;;;;5070864;28;20333;-74
2022/03/16 03:16:14;;;;;;;197.47;55.00;;;;;;;;;;5058247;28;20205;-74
2022/03/16 03:18:41;;;;;;;189.77;52.20;;;;;;;;;;5058095;28;20221;-74
2022/03/16 03:21:09;;;;;;;185.30;51.30;;;;;;;;;;5061246;28;20262;-74
2022/03/16 03:23:36;;;;;;;179.17;54.37;;;;;;;;;;5056056;28;20265;-74
2022/03/16 03:26:03;;;;;;;201.83;53.17;;;;;;;;;;5063612;28;20295;-75
2022/03/16 03:28:31;;;;;;;183.87;53.17;;;;;;;;;;5076139;28;20288;-74
2022/03/16 03:30:58;;;;;;;199.33;55.07;;;;;;;;;;5070868;28;20235;-74
2022/03/16 03:33:26;;;;;;;183.83;53.20;;;;;;;;;;5064862;28;20281;-75
2022/03/16 03:35:54;;;;;;;171.10;52.23;;;;;;;;;;5063975;28;20255;-74
2022/03/16 03:38:21;;;;;;;169.70;53.47;;;;;;;;;;5055348;28;20315;-74
2022/03/16 03:40:48;;;;;;;180.90;54.23;;;;;;;;;;5069702;28;20197;-74
2022/03/16 03:43:15;;;;;;;169.30;51.20;;;;;;;;;;5075420;28;20259;-75
2022/03/16 03:45:42;;;;;;;173.43;52.03;;;;;;;;;;5061487;28;20211;-74
2022/03/16 03:48:10;;;;;;;168.10;50.23;;;;;;;;;;5055507;28;20229;-74
2022/03/16 03:50:38;;;;;;;187.50;55.67;;;;;;;;;;5062542;28;20296;-74
2022/03/16 03:53:05;;;;;;;178.30;53.17;;;;;;;;;;5057072;28;20209;-74
2022/03/16 03:55:32;;;;;;;184.47;55.77;;;;;;;;;;5061736;28;20264;-74
2022/03/16 03:58:00;;;;;;;162.87;56.43;;;;;;;;;;5064775;28;20224;-74
2022/03/16 04:00:27;;;;;;;165.40;53.27;;;;;;;;;;5068183;28;20197;-75
2022/03/16 04:02:54;;;;;;;184.53;53.63;;;;;;;;;;5058920;28;20209;-74
2022/03/16 04:05:21;;;;;;;165.87;49.97;;;;;;;;;;5061676;28;20249;-74
2022/03/16 04:07:50;;;;;;;153.63;50.47;;;;;;;;;;5070843;28;20267;-74
2022/03/16 04:10:17;;;;;;;172.03;52.03;;;;;;;;;;5070450;28;20200;-75
2022/03/16 04:12:45;;;;;;;166.73;50.83;;;;;;;;;;5074327;28;20707;-74
2022/03/16 04:15:12;;;;;;;173.47;53.80;;;;;;;;;;5067732;28;20666;-75
2022/03/16 04:17:39;;;;;;;169.70;53.10;;;;;;;;;;5074778;28;20225;-74
2022/03/16 04:20:07;;;;;;;172.07;52.50;;;;;;;;;;5071138;28;20272;-74
2022/03/16 04:22:34;;;;;;;166.63;53.73;;;;;;;;;;5058338;28;20201;-75
2022/03/16 04:25:03;;;;;;;179.23;53.97;;;;;;;;;;5066629;28;20224;-74
2022/03/16 04:27:30;;;;;;;185.90;54.17;;;;;;;;;;5066567;28;20305;-74
2022/03/16 04:29:58;;;;;;;170.67;53.47;;;;;;;;;;5057847;28;20204;-74
2022/03/16 04:32:25;;;;;;;164.63;52.43;;;;;;;;;;5067264;28;20200;-74
2022/03/16 04:34:52;;;;;;;159.27;52.60;;;;;;;;;;5061929;28;20288;-75
2022/03/16 04:37:19;;;;;;;155.50;51.70;;;;;;;;;;5062566;28;20251;-74
2022/03/16 04:39:49;;;;;;;153.73;50.13;;;;;;;;;;5055657;28;20253;-74
2022/03/16 04:42:18;;;;;;;167.43;54.23;;;;;;;;;;5056242;28;20224;-74
2022/03/16 04:44:45;;;;;;;156.40;52.47;;;;;;;;;;5062742;28;20222;-74
2022/03/16 04:47:12;;;;;;;148.53;52.13;;;;;;;;;;5060665;28;20288;-74
2022/03/16 04:49:39;;;;;;;151.90;53.07;;;;;;;;;;5065391;28;20304;-74
2022/03/16 04:52:06;;;;;;;147.87;51.73;;;;;;;;;;5062767;28;20197;-74
2022/03/16 04:54:34;;;;;;;159.07;53.13;;;;;;;;;;5057815;28;20282;-74
2022/03/16 04:57:01;;;;;;;158.17;51.80;;;;;;;;;;5062588;28;20212;-74
2022/03/16 04:59:29;;;;;;;156.00;52.30;;;;;;;;;;5057573;28;20235;-74
2022/03/16 05:01:56;;;;;;;150.50;51.17;;;;;;;;;;5060307;28;20205;-74
2022/03/16 05:04:24;;;;;;;150.33;51.63;;;;;;;;;;5060035;28;20224;-74
2022/03/16 05:06:51;;;;;;;143.43;50.83;;;;;;;;;;5056495;28;20211;-74
2022/03/16 05:09:18;;;;;;;147.13;52.03;;;;;;;;;;5063482;28;20225;-74
2022/03/16 05:11:45;;;;;;;147.83;50.30;;;;;;;;;;5054778;28;20299;-74
2022/03/16 05:14:12;;;;;;;142.70;51.97;;;;;;;;;;5055003;28;20208;-79
2022/03/16 05:16:41;;;;;;;144.10;51.20;;;;;;;;;;5059930;28;20194;-79
2022/03/16 05:19:08;;;;;;;144.60;51.27;;;;;;;;;;5064984;28;20407;-79
2022/03/16 05:21:35;;;;;;;150.87;51.43;;;;;;;;;;5058767;28;20201;-77
2022/03/16 05:24:02;;;;;;;137.63;51.03;;;;;;;;;;5056697;28;20224;-78
2022/03/16 05:26:30;;;;;;;143.77;52.30;;;;;;;;;;5064871;28;20192;-77
2022/03/16 05:28:57;;;;;;;142.63;51.73;;;;;;;;;;5059067;28;20220;-77
2022/03/16 05:31:31;;;;;;;149.33;54.73;;;;;;;;;;5067476;28;20215;-76
2022/03/16 05:33:59;;;;;;;146.00;53.63;;;;;;;;;;5062545;28;20662;-78
2022/03/16 05:36:26;;;;;;;155.07;54.53;;;;;;;;;;5062875;28;20206;-76
2022/03/16 05:38:53;;;;;;;153.90;52.43;;;;;;;;;;5063783;28;20216;-76
2022/03/16 05:41:20;;;;;;;156.30;53.37;;;;;;;;;;5060810;28;20203;-77
2022/03/16 05:43:47;;;;;;;156.03;53.20;;;;;;;;;;5057979;28;20203;-78
2022/03/16 05:46:15;;;;;;;155.37;55.17;;;;;;;;;;5061235;28;20201;-76
2022/03/16 05:48:42;;;;;;;165.40;56.37;;;;;;;;;;5057469;28;20224;-76
2022/03/16 05:51:10;;;;;;;155.83;57.07;;;;;;;;;;5056336;28;20201;-75
2022/03/16 05:53:38;;;;;;;148.43;55.13;;;;;;;;;;5062746;28;20196;-74
2022/03/16 05:56:05;;;;;;;143.60;55.07;;;;;;;;;;5064775;28;20251;-75
2022/03/16 05:58:32;;;;;;;145.33;56.20;;;;;;;;;;5064172;28;20243;-74
2022/03/16 06:00:59;;;;;;;139.97;54.80;;;;;;;;;;5059776;28;20201;-74
2022/03/16 06:03:27;;;;;;;139.80;54.97;;;;;;;;;;5069589;28;20263;-73
2022/03/16 06:05:54;;;;;;;129.43;52.47;;;;;;;;;;5068914;28;20226;-78
2022/03/16 06:08:23;;;;;;;129.10;51.50;;;;;;;;;;5061259;28;20228;-75
2022/03/16 06:10:50;;;;;;;123.43;51.13;;;;;;;;;;5068703;28;20204;-75
2022/03/16 06:13:17;;;;;;;117.83;47.30;;;;;;;;;;5064149;28;20211;-74
2022/03/16 06:15:45;;;;;;;122.93;50.47;;;;;;;;;;5067447;28;20193;-74
2022/03/16 06:18:12;;;;;;;123.13;49.80;;;;;;;;;;5061674;28;20219;-74
2022/03/16 06:20:40;;;;;;;117.70;48.70;;;;;;;;;;5066816;28;20212;-73
2022/03/16 06:23:08;;;;;;;123.20;49.77;;;;;;;;;;5063699;28;20223;-73
2022/03/16 06:25:37;;;;;;;124.57;48.33;;;;;;;;;;5058469;28;20208;-75
2022/03/16 06:28:05;;;;;;;114.33;47.57;;;;;;;;;;5059993;28;20224;-73
2022/03/16 06:30:32;;;;;;;106.87;46.00;;;;;;;;;;5063102;28;20197;-75
2022/03/16 06:32:59;;;;;;;100.50;45.07;;;;;;;;;;5064326;28;20201;-74
2022/03/16 06:35:26;;;;;;;92.07;43.00;;;;;;;;;;5057661;28;20257;-74
2022/03/16 06:37:53;;;;;;;95.43;43.87;;;;;;;;;;5058733;28;20235;-74
2022/03/16 06:40:20;;;;;;;87.77;40.93;;;;;;;;;;5062276;28;20200;-73
2022/03/16 06:42:50;;;;;;;82.73;41.67;;;;;;;;;;5064477;28;20200;-74
2022/03/16 06:45:18;;;;;;;85.53;42.43;;;;;;;;;;5063577;28;20218;-75
2022/03/16 06:47:45;;;;;;;83.87;41.37;;;;;;;;;;5061537;28;20201;-74
2022/03/16 06:50:12;;;;;;;88.27;42.53;;;;;;;;;;5063226;28;20232;-74
2022/03/16 06:52:40;;;;;;;88.83;42.80;;;;;;;;;;5068112;28;20196;-74
2022/03/16 06:55:08;;;;;;;89.77;43.63;;;;;;;;;;5066601;28;20201;-75
2022/03/16 06:57:35;;;;;;;85.00;42.60;;;;;;;;;;5066268;28;20198;-74
2022/03/16 07:00:04;;;;;;;90.27;42.63;;;;;;;;;;5068382;28;20268;-74
2022/03/16 07:02:46;;;;;;;89.17;42.23;;;;;;;;;;5057274;28;20287;-74
2022/03/16 07:05:14;;;;;;;86.57;39.97;;;;;;;;;;5057091;28;20231;-77
2022/03/16 07:07:41;;;;;;;86.57;42.27;;;;;;;;;;5063040;28;20319;-76
2022/03/16 07:10:08;;;;;;;82.23;40.70;;;;;;;;;;5068469;28;20226;-76
2022/03/16 07:12:35;;;;;;;83.37;40.17;;;;;;;;;;5071906;28;20326;-75
2022/03/16 07:15:04;;;;;;;83.20;39.83;;;;;;;;;;5067894;28;20200;-75
2022/03/16 07:17:32;;;;;;;82.47;40.77;;;;;;;;;;5061763;28;20235;-77
2022/03/16 07:19:59;;;;;;;86.20;39.83;;;;;;;;;;5067825;28;20208;-76
2022/03/16 07:22:27;;;;;;;80.57;39.27;;;;;;;;;;5058858;28;20201;-76
2022/03/16 07:24:54;;;;;;;77.03;41.00;;;;;;;;;;5054484;28;20221;-75
2022/03/16 07:27:21;;;;;;;71.97;37.97;;;;;;;;;;5062068;28;20649;-76
2022/03/16 07:29:48;;;;;;;69.63;38.17;;;;;;;;;;5068419;28;20221;-76
2022/03/16 07:32:17;;;;;;;68.70;38.60;;;;;;;;;;5059290;28;20203;-75
2022/03/16 07:34:46;;;;;;;67.30;37.40;;;;;;;;;;5064539;28;20204;-75
2022/03/16 07:37:13;;;;;;;66.77;36.80;;;;;;;;;;5061697;28;20290;-75
2022/03/16 07:39:40;;;;;;;68.27;37.00;;;;;;;;;;5065488;28;20275;-76
2022/03/16 07:42:07;;;;;;;57.73;34.77;;;;;;;;;;5063359;28;20200;-75
2022/03/16 07:44:35;;;;;;;57.87;35.77;;;;;;;;;;5054047;28;20221;-75
2022/03/16 07:47:02;;;;;;;60.63;35.03;;;;;;;;;;5054754;28;20252;-75
2022/03/16 07:49:31;;;;;;;57.23;34.93;;;;;;;;;;5071879;28;20223;-76
2022/03/16 07:51:58;;;;;;;55.23;35.30;;;;;;;;;;5062859;28;20205;-76
2022/03/16 07:54:25;;;;;;;54.90;34.70;;;;;;;;;;5065389;28;20228;-75
2022/03/16 07:56:53;;;;;;;63.43;40.53;;;;;;;;;;5061648;28;20207;-75
2022/03/16 07:59:20;;;;;;;51.17;34.27;;;;;;;;;;5065322;28;20231;-76
2022/03/16 08:01:48;;;;;;;52.30;33.13;;;;;;;;;;5070027;28;20216;-75
2022/03/16 08:04:16;;;;;;;48.03;33.80;;;;;;;;;;5065594;28;20287;-75
2022/03/16 08:06:44;;;;;;;50.43;33.93;;;;;;;;;;5071673;28;20283;-76
2022/03/16 08:09:14;;;;;;;46.60;32.50;;;;;;;;;;5066127;28;20221;-76
2022/03/16 08:11:45;;;;;;;46.07;31.10;;;;;;;;;;5060521;28;20216;-76
2022/03/16 08:14:15;;;;;;;42.57;30.63;;;;;;;;;;5060057;28;20209;-76
2022/03/16 08:16:42;;;;;;;43.30;30.23;;;;;;;;;;5059483;28;20209;-76
2022/03/16 08:19:09;;;;;;;43.43;30.90;;;;;;;;;;5060131;28;20229;-77
2022/03/16 08:21:37;;;;;;;41.33;29.57;;;;;;;;;;5061648;28;20205;-77
2022/03/16 08:24:06;;;;;;;41.27;29.43;;;;;;;;;;5079386;28;20208;-77
2022/03/16 08:26:34;;;;;;;36.70;28.10;;;;;;;;;;5055214;28;20229;-77
2022/03/16 08:29:01;;;;;;;36.50;27.07;;;;;;;;;;5063242;28;20603;-77
2022/03/16 08:31:28;;;;;;;36.80;27.23;;;;;;;;;;5059702;28;20201;-77
2022/03/16 08:33:56;;;;;;;33.93;25.50;;;;;;;;;;5067229;28;20201;-77
2022/03/16 08:36:23;;;;;;;32.67;24.37;;;;;;;;;;5066254;28;20220;-77
2022/03/16 08:38:50;;;;;;;33.33;25.93;;;;;;;;;;5058278;28;20237;-77
2022/03/16 08:41:19;;;;;;;31.37;25.17;;;;;;;;;;5058864;28;20244;-77
2022/03/16 08:43:46;;;;;;;33.37;25.77;;;;;;;;;;5057021;28;20236;-76
2022/03/16 08:46:14;;;;;;;31.67;24.47;;;;;;;;;;5056802;28;20225;-77
2022/03/16 08:48:41;;;;;;;32.33;23.93;;;;;;;;;;5056460;28;20249;-77
2022/03/16 08:51:09;;;;;;;28.57;24.43;;;;;;;;;;5060293;28;20205;-77
2022/03/16 08:53:37;;;;;;;28.40;23.63;;;;;;;;;;5055677;28;20193;-76
2022/03/16 08:56:05;;;;;;;29.00;23.37;;;;;;;;;;5054596;28;20364;-76
2022/03/16 08:58:34;;;;;;;29.43;24.07;;;;;;;;;;5062136;28;20274;-77
2022/03/16 09:01:01;;;;;;;26.20;22.00;;;;;;;;;;5075511;28;20232;-77
2022/03/16 09:03:28;;;;;;;27.13;22.30;;;;;;;;;;5055027;28;20281;-76
2022/03/16 09:05:55;;;;;;;29.70;23.43;;;;;;;;;;5076872;28;20327;-78
2022/03/16 09:08:22;;;;;;;28.50;23.23;;;;;;;;;;5077389;28;20246;-77
2022/03/16 09:10:50;;;;;;;28.70;24.73;;;;;;;;;;5077679;28;20204;-77
2022/03/16 09:13:19;;;;;;;27.70;22.67;;;;;;;;;;5073956;28;20236;-77
2022/03/16 09:15:49;;;;;;;30.07;24.33;;;;;;;;;;5067245;28;20204;-77
2022/03/16 09:18:18;;;;;;;27.90;23.00;;;;;;;;;;5067360;28;20225;-77
2022/03/16 09:20:46;;;;;;;31.63;23.27;;;;;;;;;;5065698;28;20273;-77
2022/03/16 09:23:13;;;;;;;24.20;21.30;;;;;;;;;;5078087;28;20211;-77
2022/03/16 09:25:40;;;;;;;25.57;21.47;;;;;;;;;;5078900;28;20240;-76
2022/03/16 09:28:08;;;;;;;22.57;20.13;;;;;;;;;;5074313;28;20224;-76
2022/03/16 09:30:36;;;;;;;29.47;20.80;;;;;;;;;;5070258;28;20207;-76
2022/03/16 09:33:05;;;;;;;28.03;21.47;;;;;;;;;;5061135;28;20223;-76
2022/03/16 09:35:34;;;;;;;24.50;21.43;;;;;;;;;;5068047;28;20231;-76
2022/03/16 09:38:01;;;;;;;26.27;21.00;;;;;;;;;;5077161;28;20224;-76
2022/03/16 09:40:28;;;;;;;25.10;21.33;;;;;;;;;;5063760;28;20201;-76
2022/03/16 09:42:55;;;;;;;25.27;20.77;;;;;;;;;;5076196;28;20204;-76
2022/03/16 09:45:23;;;;;;;25.00;20.77;;;;;;;;;;5073652;28;20224;-76
2022/03/16 09:47:51;;;;;;;22.63;20.13;;;;;;;;;;5069612;28;20289;-76
2022/03/16 09:50:20;;;;;;;26.17;21.17;;;;;;;;;;5071332;28;20213;-76
2022/03/16 09:52:47;;;;;;;23.53;21.03;;;;;;;;;;5059370;28;20221;-76
2022/03/16 09:55:17;;;;;;;23.73;21.33;;;;;;;;;;5063671;28;20205;-76
2022/03/16 09:57:44;;;;;;;24.63;21.07;;;;;;;;;;5056950;28;20205;-76
2022/03/16 10:00:13;;;;;;;23.37;19.60;;;;;;;;;;5069278;28;20210;-76
2022/03/16 10:02:40;;;;;;;25.03;20.30;;;;;;;;;;5073603;28;20200;-76
2022/03/16 10:05:09;;;;;;;23.13;20.73;;;;;;;;;;5066114;28;20287;-76
2022/03/16 10:07:37;;;;;;;24.00;21.47;;;;;;;;;;5060390;28;20201;-76
2022/03/16 10:15:36;;;;;;;26.13;21.33;;;;;;;;;;5065652;28;20200;-76
2022/03/16 10:18:04;;;;;;;25.13;20.57;;;;;;;;;;5062963;28;20252;-76
2022/03/16 10:20:32;;;;;;;23.90;19.60;;;;;;;;;;5060291;28;20262;-76
2022/03/16 10:23:02;;;;;;;24.65;19.65;;;;;;;;;;5067203;28;20215;-76
2022/03/16 10:25:30;;;;;;;24.17;20.73;;;;;;;;;;5065403;28;20260;-76
2022/03/16 10:28:11;;;;;;;21.77;19.48;;;;;;;;;;5059807;28;20221;-76
2022/03/16 10:30:39;;;;;;;22.73;20.33;;;;;;;;;;5071817;28;20231;-76
2022/03/16 10:33:07;;;;;;;24.27;19.98;;;;;;;;;;5068645;28;20299;-76
2022/03/16 10:35:34;;;;;;;22.48;20.13;;;;;;;;;;5074136;28;20255;-82
2022/03/16 10:38:10;;;;;;;26.02;19.65;;;;;;;;;;5077508;28;20227;-83
2022/03/16 10:40:44;;;;;;;26.40;20.73;;;;;;;;;;5076179;28;20231;-77
2022/03/16 10:48:58;;;;;;;23.35;20.95;;;;;;;;;;5064498;28;20358;-76
2022/03/16 10:51:25;;;;;;;26.20;19.15;;;;;;;;;;5063426;28;20276;-77
2022/03/16 10:53:53;;;;;;;21.98;19.88;;;;;;;;;;5057626;28;20218;-77
2022/03/16 10:56:23;;;;;;;25.15;20.88;;;;;;;;;;5069172;28;20215;-77
2022/03/16 10:58:52;;;;;;;20.92;18.70;;;;;;;;;;5078040;28;20217;-76
2022/03/16 11:01:19;;;;;;;20.92;18.75;;;;;;;;;;5067832;28;20268;-78
2022/03/16 11:03:48;;;;;;;20.40;18.17;;;;;;;;;;5065129;28;20275;-79
2022/03/16 11:06:16;;;;;;;23.70;19.90;;;;;;;;;;5056941;28;20227;-78
2022/03/16 11:08:44;;;;;;;22.98;19.15;;;;;;;;;;5058021;28;20221;-78
2022/03/16 11:13:58;;;;;;;23.85;17.95;;;;;;;;;;5071996;28;20203;-79
2022/03/16 11:16:26;;;;;;;20.92;18.70;;;;;;;;;;5070667;28;20205;-79
2022/03/16 11:18:56;;;;;;;19.67;17.58;;;;;;;;;;5072517;28;20223;-77
2022/03/16 11:21:27;;;;;;;20.35;17.45;;;;;;;;;;5059565;28;20200;-78
2022/03/16 11:26:49;;;;;;;22.20;17.90;;;;;;;;;;5059331;28;20227;-76
2022/03/16 11:29:23;;;;;;;21.63;17.95;;;;;;;;;;5065623;28;20231;-79
2022/03/16 11:31:50;;;;;;;19.25;17.20;;;;;;;;;;5071649;28;20288;-79
2022/03/16 11:34:22;;;;;;;20.17;17.85;;;;;;;;;;5068686;28;20242;-78
2022/03/16 11:37:00;;;;;;;18.75;16.55;;;;;;;;;;5064365;28;20205;-79
2022/03/16 11:39:28;;;;;;;19.33;16.75;;;;;;;;;;5061866;28;20299;-80
2022/03/16 11:41:57;;;;;;;18.50;16.45;;;;;;;;;;5070346;28;20713;-79
2022/03/16 11:44:29;;;;;;;18.05;16.23;;;;;;;;;;5063967;28;20288;-77
2022/03/16 11:46:56;;;;;;;17.92;16.17;;;;;;;;;;5058758;28;20224;-79
2022/03/16 11:49:28;;;;;;;127.22;27.50;;;;;;;;;;5062186;28;20311;-77
2022/03/16 11:51:59;;;;;;;20.85;16.35;;;;;;;;;;5061924;28;20307;-77
2022/03/16 11:54:41;;;;;;;17.15;15.35;;;;;;;;;;5063682;28;20283;-76
2022/03/16 11:57:09;;;;;;;17.63;14.90;;;;;;;;;;5069046;28;20234;-77
2022/03/16 11:59:40;;;;;;;21.00;15.77;;;;;;;;;;5063691;28;20282;-76
2022/03/16 12:02:12;;;;;;;16.40;14.70;;;;;;;;;;5058319;28;20246;-76
2022/03/16 12:04:42;;;;;;;17.30;15.38;;;;;;;;;;5058078;28;20215;-76
2022/03/16 12:07:11;;;;;;;19.30;16.05;;;;;;;;;;5063837;28;20220;-76
2022/03/16 12:09:41;;;;;;;35.55;17.85;;;;;;;;;;5055241;28;20264;-75
2022/03/16 12:14:59;;;;;;;23.92;15.93;;;;;;;;;;5058018;28;20285;-76
2022/03/16 12:17:26;;;;;;;17.42;15.63;;;;;;;;;;5054972;28;20201;-76
2022/03/16 12:20:14;;;;;;;17.58;15.15;;;;;;;;;;5063890;28;20220;-78
2022/03/16 12:22:46;;;;;;;16.23;14.52;;;;;;;;;;5059835;28;20247;-75
2022/03/16 12:25:30;;;;;;;16.02;14.40;;;;;;;;;;5072420;28;20323;-75
2022/03/16 12:30:46;;;;;;;16.90;15.02;;;;;;;;;;5056307;28;20293;-76
2022/03/16 12:33:19;;;;;;;17.63;15.82;;;;;;;;;;5067644;28;20225;-77
2022/03/16 12:35:47;;;;;;;19.20;16.48;;;;;;;;;;5059709;28;20193;-76
2022/03/16 12:38:14;;;;;;;18.42;15.75;;;;;;;;;;5054717;28;20267;-77
2022/03/16 12:42:31;;;;;;;32.75;17.42;;;;;;;;;;5061937;28;20219;-78
2022/03/16 12:43:32;;;;;;;17.20;15.30;;;;;;;;;;5058556;28;20659;-77
2022/03/16 12:46:05;;;;;;;31.98;17.52;;;;;;;;;;5058416;28;20207;-78
2022/03/16 12:48:36;;;;;;;19.98;15.18;;;;;;;;;;5053464;28;20286;-78
2022/03/16 12:51:04;;;;;;;15.68;13.80;;;;;;;;;;5058165;28;20206;-77
2022/03/16 12:53:44;;;;;;;15.38;13.88;;;;;;;;;;5056045;28;20201;-79
2022/03/16 12:56:17;;;;;;;14.80;13.40;;;;;;;;;;5057601;28;20197;-78
2022/03/16 12:58:52;;;;;;;15.93;14.32;;;;;;;;;;5058917;28;20296;-79
2022/03/16 13:01:19;;;;;;;15.85;14.07;;;;;;;;;;5070213;28;20744;-77
2022/03/16 13:03:48;;;;;;;15.60;14.10;;;;;;;;;;5065122;28;20247;-78
2022/03/16 13:06:17;;;;;;;19.10;15.02;;;;;;;;;;5059120;28;20270;-80
2022/03/16 13:08:50;;;;;;;21.95;15.00;;;;;;;;;;5067095;28;20231;-76
2022/03/16 13:11:22;;;;;;;16.98;14.73;;;;;;;;;;5058286;28;20293;-76
2022/03/16 13:14:00;;;;;;;15.90;14.25;;;;;;;;;;5068017;28;20204;-77
2022/03/16 13:16:38;;;;;;;16.38;13.93;;;;;;;;;;5053185;28;20279;-77
2022/03/16 13:19:23;;;;;;;18.42;13.52;;;;;;;;;;5055827;28;20252;-77
2022/03/16 13:22:02;;;;;;;15.32;13.88;;;;;;;;;;5056674;28;20211;-77
2022/03/16 13:24:31;;;;;;;18.95;15.07;;;;;;;;;;5071045;28;20222;-76
2022/03/16 13:26:58;;;;;;;14.35;12.98;;;;;;;;;;5070496;28;20221;-77
2022/03/16 13:29:28;;;;;;;16.17;14.48;;;;;;;;;;5061023;28;20252;-76
2022/03/16 13:31:57;;;;;;;26.45;16.02;;;;;;;;;;5085734;22;20229;-77
2022/03/16 13:34:26;;;;;;;15.48;13.88;;;;;;;;;;5032133;28;20687;-77
2022/03/16 13:36:53;;;;;;;14.18;12.80;;;;;;;;;;5031841;28;20212;-76
2022/03/16 13:39:22;;;;;;;26.67;15.32;;;;;;;;;;5033548;28;20303;-77
2022/03/16 13:42:07;;;;;;;15.27;13.45;;;;;;;;;;5024805;28;20217;-79
2022/03/16 13:44:40;;;;;;;17.67;13.50;;;;;;;;;;5027073;28;20209;-77
2022/03/16 13:47:08;;;;;;;35.83;16.67;;;;;;;;;;5028453;28;20228;-76
2022/03/16 13:49:37;;;;;;;18.75;13.82;;;;;;;;;;5021901;28;20221;-77
2022/03/16 13:52:05;;;;;;;14.75;12.77;;;;;;;;;;5033122;28;20236;-77
2022/03/16 13:54:34;;;;;;;14.93;13.52;;;;;;;;;;5035054;28;20853;-77
2022/03/16 13:57:08;;;;;;;16.40;14.35;;;;;;;;;;5029955;28;20194;-77
2022/03/16 13:59:36;;;;;;;18.60;12.90;;;;;;;;;;5030665;28;20201;-77
2022/03/16 14:02:11;;;;;;;14.55;13.00;;;;;;;;;;5030211;28;20221;-77
2022/03/16 14:04:39;;;;;;;15.45;13.85;;;;;;;;;;5036105;28;20197;-78
2022/03/16 14:07:23;;;;;;;25.15;15.27;;;;;;;;;;5034991;28;20305;-79
2022/03/16 14:09:53;;;;;;;14.85;13.20;;;;;;;;;;5031413;28;20254;-79
2022/03/16 14:12:20;;;;;;;29.35;16.00;;;;;;;;;;5029634;28;20222;-77
2022/03/16 14:14:49;;;;;;;16.45;13.50;;;;;;;;;;5030155;28;20198;-77
2022/03/16 14:17:16;;;;;;;15.88;14.18;;;;;;;;;;5029787;28;20194;-77
2022/03/16 14:19:46;;;;;;;15.23;13.73;;;;;;;;;;5030582;28;20324;-76
2022/03/16 14:22:15;;;;;;;15.52;13.68;;;;;;;;;;5039171;28;20322;-77
2022/03/16 14:24:43;;;;;;;18.00;14.95;;;;;;;;;;5032147;28;20256;-77
2022/03/16 14:27:18;;;;;;;15.23;13.40;;;;;;;;;;5031756;28;20213;-79
2022/03/16 14:29:46;;;;;;;24.30;14.88;;;;;;;;;;5030819;28;20241;-81
2022/03/16 14:32:15;;;;;;;16.55;14.65;;;;;;;;;;5033046;28;20239;-78
2022/03/16 14:34:43;;;;;;;17.02;13.55;;;;;;;;;;5032141;28;20285;-77
2022/03/16 14:37:10;;;;;;;19.10;14.07;;;;;;;;;;5032751;28;20206;-78
2022/03/16 14:39:38;;;;;;;16.77;13.65;;;;;;;;;;5034319;28;20206;-78
2022/03/16 14:42:06;;;;;;;13.65;12.25;;;;;;;;;;5034070;28;20248;-78